createdAt,value
2019-01-04T00:00:00.598Z,37.95
2019-01-04T00:01:00.858Z,37.95
2019-01-04T00:02:00.569Z,37.85
2019-01-04T00:03:00.569Z,37.95
2019-01-04T00:04:00.648Z,37.85
2019-01-04T00:05:00.646Z,37.95
2019-01-04T00:06:00.532Z,37.95
2019-01-04T00:07:00.545Z,37.95
2019-01-04T00:08:00.600Z,37.95
2019-01-04T00:09:00.562Z,37.85
2019-01-04T00:10:00.755Z,37.95
2019-01-04T00:11:00.656Z,37.95
2019-01-04T00:12:00.462Z,38.05
2019-01-04T00:13:00.449Z,38.05
2019-01-04T00:14:00.466Z,37.95
2019-01-04T00:15:00.432Z,37.95
2019-01-04T00:16:00.431Z,37.95
2019-01-04T00:17:00.411Z,38.15
2019-01-04T00:18:00.648Z,37.74
2019-01-04T00:19:00.444Z,37.85
2019-01-04T00:20:00.377Z,37.95
2019-01-04T00:21:00.388Z,37.85
2019-01-04T00:22:00.364Z,37.85
2019-01-04T00:23:00.332Z,37.95
2019-01-04T00:24:00.335Z,37.85
2019-01-04T00:25:00.385Z,37.95
2019-01-04T00:26:00.302Z,37.95
2019-01-04T00:27:00.591Z,38.35
2019-01-04T00:28:00.291Z,38.25
2019-01-04T00:29:00.282Z,37.74
2019-01-04T00:30:00.269Z,37.95
2019-01-04T00:31:00.311Z,37.85
2019-01-04T00:32:00.286Z,37.95
2019-01-04T00:33:00.224Z,37.85
2019-01-04T00:34:00.491Z,37.85
2019-01-04T00:35:00.207Z,38.05
2019-01-04T00:36:00.192Z,38.15
2019-01-04T00:37:00.462Z,37.85
2019-01-04T00:38:00.163Z,37.74
2019-01-04T00:39:00.173Z,38.15
2019-01-04T00:40:00.199Z,37.85
2019-01-04T00:41:00.169Z,37.95
2019-01-04T00:42:00.130Z,37.87
2019-01-04T00:43:00.111Z,37.96
2019-01-04T00:44:00.119Z,37.95
2019-01-04T00:45:00.223Z,37.85
2019-01-04T00:46:00.124Z,37.87
2019-01-04T00:47:00.386Z,37.85
2019-01-04T00:48:00.063Z,37.85
2019-01-04T00:49:00.078Z,37.85
2019-01-04T00:50:00.093Z,37.85
2019-01-04T00:51:00.027Z,37.74
2019-01-04T00:52:00.011Z,37.85
2019-01-04T00:53:00.251Z,37.87
2019-01-04T00:54:00.034Z,37.95
2019-01-04T00:54:59.986Z,38.35
2019-01-04T00:56:00.212Z,38.35
2019-01-04T00:56:59.952Z,37.85
2019-01-04T00:58:00.029Z,38.35
2019-01-04T00:58:59.946Z,37.95
2019-01-04T00:59:59.940Z,37.95
2019-01-04T01:01:00.169Z,37.85
2019-01-04T01:01:59.933Z,37.95
2019-01-04T01:03:00.149Z,37.95
2019-01-04T01:03:59.893Z,37.95
2019-01-04T01:04:59.862Z,37.87
2019-01-04T01:05:59.848Z,38.35
2019-01-04T01:07:00.742Z,37.87
2019-01-04T01:07:59.826Z,38.35
2019-01-04T01:09:00.078Z,37.87
2019-01-04T01:09:59.810Z,38.37
2019-01-04T01:11:00.007Z,38.17
2019-01-04T01:11:59.780Z,37.85
2019-01-04T01:13:00.160Z,38.37
2019-01-04T01:13:59.810Z,38.05
2019-01-04T01:15:00.019Z,37.76
2019-01-04T01:15:59.785Z,37.85
2019-01-04T01:16:59.734Z,38.35
2019-01-04T01:17:59.716Z,37.85
2019-01-04T01:18:59.755Z,37.85
2019-01-04T01:19:59.711Z,37.76
2019-01-04T01:20:59.700Z,37.85
2019-01-04T01:21:59.922Z,37.85
2019-01-04T01:23:00.720Z,37.85
2019-01-04T01:23:59.656Z,37.96
2019-01-04T01:24:59.665Z,37.95
2019-01-04T01:25:59.944Z,38.37
2019-01-04T01:26:59.614Z,37.85
2019-01-04T01:27:59.642Z,37.96
2019-01-04T01:28:59.596Z,37.95
2019-01-04T01:29:59.857Z,37.95
2019-01-04T01:30:59.589Z,37.95
2019-01-04T01:31:59.814Z,37.95
2019-01-04T01:32:59.551Z,37.76
2019-01-04T01:33:59.788Z,37.95
2019-01-04T01:34:59.553Z,37.87
2019-01-04T01:35:59.531Z,37.85
2019-01-04T01:36:59.518Z,38.05
2019-01-04T01:37:59.708Z,37.96
2019-01-04T01:38:59.738Z,37.95
2019-01-04T01:39:59.500Z,38.37
2019-01-04T01:40:59.453Z,37.85
2019-01-04T01:41:59.507Z,37.95
2019-01-04T01:42:59.451Z,37.96
2019-01-04T01:43:59.674Z,38.07
2019-01-04T01:44:59.426Z,37.85
2019-01-04T01:45:59.419Z,37.85
2019-01-04T01:46:59.394Z,37.85
2019-01-04T01:47:59.380Z,38.47
2019-01-04T01:48:59.648Z,38.47
2019-01-04T01:49:59.872Z,38.45
2019-01-04T01:50:59.344Z,38.45
2019-01-04T01:51:59.581Z,38.15
2019-01-04T01:52:59.327Z,38.15
2019-01-04T01:53:59.325Z,37.96
2019-01-04T01:54:59.566Z,37.85
2019-01-04T01:55:59.310Z,38.17
2019-01-04T01:56:59.278Z,38.07
2019-01-04T01:57:59.264Z,38.15
2019-01-04T01:58:59.255Z,38.15
2019-01-04T01:59:59.264Z,38.47
2019-01-04T02:00:59.253Z,38.07
2019-01-04T02:01:59.484Z,38.15
2019-01-04T02:02:59.212Z,38.15
2019-01-04T02:03:59.194Z,38.47
2019-01-04T02:04:59.198Z,38.15
2019-01-04T02:05:59.418Z,38.35
2019-01-04T02:06:59.425Z,37.54
2019-01-04T02:07:59.413Z,38.17
2019-01-04T02:08:59.138Z,38.45
2019-01-04T02:09:59.180Z,38.15
2019-01-04T02:10:59.119Z,38.05
2019-01-04T02:11:59.112Z,38.17
2019-01-04T02:12:59.099Z,38.15
2019-01-04T02:13:59.343Z,38.17
2019-01-04T02:14:59.086Z,37.85
2019-01-04T02:15:59.073Z,37.54
2019-01-04T02:16:59.555Z,38.37
2019-01-04T02:17:59.075Z,38.45
2019-01-04T02:18:59.041Z,38.57
2019-01-04T02:19:59.302Z,38.15
2019-01-04T02:20:59.014Z,38.07
2019-01-04T02:21:59.052Z,38.17
2019-01-04T02:22:59.252Z,38.45
2019-01-04T02:23:59.241Z,37.85
2019-01-04T02:24:58.974Z,37.76
2019-01-04T02:25:59.213Z,37.87
2019-01-04T02:26:59.184Z,37.54
2019-01-04T02:27:58.945Z,38.35
2019-01-04T02:28:58.924Z,37.56
2019-01-04T02:29:58.933Z,38.35
2019-01-04T02:30:58.988Z,37.76
2019-01-04T02:31:58.886Z,37.46
2019-01-04T02:32:58.873Z,37.74
2019-01-04T02:33:58.905Z,37.74
2019-01-04T02:34:58.860Z,37.54
2019-01-04T02:35:58.838Z,37.74
2019-01-04T02:36:59.348Z,37.54
2019-01-04T02:37:58.824Z,37.65
2019-01-04T02:38:58.803Z,37.65
2019-01-04T02:39:58.805Z,37.54
2019-01-04T02:40:58.805Z,38.05
2019-01-04T02:41:58.821Z,37.54
2019-01-04T02:42:59.008Z,37.54
2019-01-04T02:43:58.758Z,38.35
2019-01-04T02:44:58.759Z,37.56
2019-01-04T02:45:58.812Z,37.54
2019-01-04T02:46:58.963Z,37.96
2019-01-04T02:47:58.714Z,37.54
2019-01-04T02:48:58.938Z,37.46
2019-01-04T02:49:58.676Z,37.45
2019-01-04T02:50:58.938Z,37.56
2019-01-04T02:51:58.662Z,37.65
2019-01-04T02:52:58.664Z,37.76
2019-01-04T02:53:58.671Z,37.76
2019-01-04T02:54:58.656Z,37.45
2019-01-04T02:55:59.154Z,37.65
2019-01-04T02:56:58.609Z,37.56
2019-01-04T02:57:58.841Z,37.85
2019-01-04T02:58:58.831Z,37.85
2019-01-04T02:59:58.810Z,37.56
2019-01-04T03:00:58.579Z,37.85
2019-01-04T03:01:58.565Z,37.54
2019-01-04T03:02:58.812Z,37.54
2019-01-04T03:03:58.545Z,38.35
2019-01-04T03:04:58.510Z,38.15
2019-01-04T03:05:58.510Z,37.54
2019-01-04T03:06:58.520Z,38.37
2019-01-04T03:07:58.770Z,37.46
2019-01-04T03:08:58.468Z,37.54
2019-01-04T03:09:58.465Z,37.45
2019-01-04T03:10:58.453Z,37.54
2019-01-04T03:11:58.485Z,37.45
2019-01-04T03:12:58.418Z,37.54
2019-01-04T03:13:58.673Z,37.74
2019-01-04T03:14:58.426Z,37.74
2019-01-04T03:15:58.459Z,37.95
2019-01-04T03:16:58.627Z,37.95
2019-01-04T03:17:58.368Z,38.25
2019-01-04T03:18:58.649Z,38.25
2019-01-04T03:19:58.347Z,37.74
2019-01-04T03:20:58.629Z,37.74
2019-01-04T03:21:58.682Z,37.65
2019-01-04T03:22:58.576Z,37.74
2019-01-04T03:23:58.551Z,37.54
2019-01-04T03:24:59.845Z,37.74
2019-01-04T03:25:58.345Z,38.25
2019-01-04T03:26:58.265Z,38.25
2019-01-04T03:27:58.257Z,37.74
2019-01-04T03:28:58.237Z,37.74
2019-01-04T03:29:58.233Z,37.65
2019-01-04T03:30:58.245Z,37.74
2019-01-04T03:31:58.230Z,37.74
2019-01-04T03:32:58.294Z,37.65
2019-01-04T03:33:58.498Z,37.65
2019-01-04T03:34:58.178Z,38.25
2019-01-04T03:35:58.241Z,37.76
2019-01-04T03:36:58.156Z,37.85
2019-01-04T03:37:58.142Z,38.25
2019-01-04T03:38:58.174Z,38.25
2019-01-04T03:39:58.373Z,37.45
2019-01-04T03:40:58.134Z,38.05
2019-01-04T03:41:58.449Z,38.25
2019-01-04T03:42:58.091Z,37.74
2019-01-04T03:43:58.076Z,38.27
2019-01-04T03:44:58.059Z,37.85
2019-01-04T03:45:58.062Z,38.25
2019-01-04T03:46:58.039Z,38.07
2019-01-04T03:47:58.028Z,37.74
2019-01-04T03:48:58.029Z,37.74
2019-01-04T03:49:58.290Z,37.74
2019-01-04T03:50:58.005Z,37.96
2019-01-04T03:51:58.038Z,37.95
2019-01-04T03:52:57.992Z,37.65
2019-01-04T03:53:57.968Z,37.95
2019-01-04T03:54:58.202Z,37.45
2019-01-04T03:55:58.231Z,37.74
2019-01-04T03:56:57.950Z,37.54
2019-01-04T03:57:57.935Z,37.76
2019-01-04T03:58:58.010Z,37.56
2019-01-04T03:59:57.899Z,37.74
2019-01-04T04:01:58.133Z,37.85
2019-01-04T04:02:58.368Z,37.76
2019-01-04T04:03:58.128Z,38.25
2019-01-04T04:04:57.841Z,38.35
2019-01-04T04:05:57.833Z,37.45
2019-01-04T04:06:57.835Z,37.74
2019-01-04T04:07:57.803Z,37.54
2019-01-04T04:08:58.081Z,37.76
2019-01-04T04:09:57.787Z,37.66
2019-01-04T04:10:57.788Z,37.74
2019-01-04T04:11:57.779Z,37.56
2019-01-04T04:12:57.773Z,37.54
2019-01-04T04:13:57.748Z,37.74
2019-01-04T04:14:57.739Z,37.74
2019-01-04T04:15:57.712Z,37.54
2019-01-04T04:16:57.722Z,37.54
2019-01-04T04:17:57.713Z,37.65
2019-01-04T04:18:57.685Z,37.54
2019-01-04T04:19:57.675Z,37.74
2019-01-04T04:20:57.657Z,37.45
2019-01-04T04:21:57.983Z,37.56
2019-01-04T04:22:57.650Z,37.85
2019-01-04T04:23:57.630Z,38.37
2019-01-04T04:24:57.625Z,37.74
2019-01-04T04:25:57.917Z,37.56
2019-01-04T04:26:57.902Z,37.74
2019-01-04T04:27:57.587Z,37.74
2019-01-04T04:28:57.816Z,37.54
2019-01-04T04:29:57.607Z,37.74
2019-01-04T04:30:57.546Z,37.74
2019-01-04T04:31:57.810Z,38.25
2019-01-04T04:32:57.855Z,37.74
2019-01-04T04:33:57.518Z,37.74
2019-01-04T04:34:57.503Z,38.25
2019-01-04T04:35:57.513Z,37.54
2019-01-04T04:36:57.506Z,37.74
2019-01-04T04:37:57.485Z,37.85
2019-01-04T04:38:57.459Z,37.54
2019-01-04T04:39:57.462Z,37.65
2019-01-04T04:40:57.728Z,37.95
2019-01-04T04:41:57.467Z,37.65
2019-01-04T04:42:57.417Z,38.25
2019-01-04T04:43:57.421Z,38.27
2019-01-04T04:44:57.403Z,38.25
2019-01-04T04:45:57.377Z,37.74
2019-01-04T04:46:57.386Z,38.25
2019-01-04T04:47:57.359Z,37.65
2019-01-04T04:48:57.347Z,38.25
2019-01-04T04:49:57.337Z,38.25
2019-01-04T04:50:57.601Z,37.76
2019-01-04T04:51:57.391Z,37.66
2019-01-04T04:52:57.362Z,37.74
2019-01-04T04:53:57.549Z,37.74
2019-01-04T04:54:57.278Z,38.25
2019-01-04T04:55:57.274Z,38.27
2019-01-04T04:56:57.280Z,37.74
2019-01-04T04:57:57.262Z,37.74
2019-01-04T04:58:57.236Z,37.74
2019-01-04T04:59:57.241Z,38.25
2019-01-04T05:00:57.227Z,37.85
2019-01-04T05:01:57.471Z,37.66
2019-01-04T05:02:57.201Z,37.74
2019-01-04T05:03:57.433Z,37.65
2019-01-04T05:04:57.431Z,37.66
2019-01-04T05:05:57.173Z,37.74
2019-01-04T05:06:57.157Z,37.34
2019-01-04T05:07:57.143Z,38.25
2019-01-04T05:08:57.172Z,38.05
2019-01-04T05:09:57.118Z,38.07
2019-01-04T05:10:57.099Z,38.15
2019-01-04T05:11:57.108Z,37.74
2019-01-04T05:12:57.328Z,38.25
2019-01-04T05:13:57.071Z,38.25
2019-01-04T05:14:57.055Z,38.05
2019-01-04T05:15:57.045Z,37.95
2019-01-04T05:16:57.073Z,37.95
2019-01-04T05:17:57.040Z,38.05
2019-01-04T05:18:57.016Z,38.07
2019-01-04T05:19:57.023Z,38.15
2019-01-04T05:20:57.014Z,37.66
2019-01-04T05:21:56.999Z,38.07
2019-01-04T05:22:56.974Z,38.17
2019-01-04T05:23:56.952Z,37.95
2019-01-04T05:24:56.947Z,37.74
2019-01-04T05:25:56.988Z,37.56
2019-01-04T05:26:57.577Z,38.25
2019-01-04T05:27:56.968Z,37.74
2019-01-04T05:28:56.910Z,38.25
2019-01-04T05:29:56.895Z,38.25
2019-01-04T05:30:56.888Z,38.25
2019-01-04T05:31:57.266Z,37.96
2019-01-04T05:32:56.857Z,37.65
2019-01-04T05:33:56.869Z,37.74
2019-01-04T05:34:56.853Z,37.65
2019-01-04T05:35:56.826Z,37.95
2019-01-04T05:36:56.824Z,37.65
2019-01-04T05:37:57.075Z,37.65
2019-01-04T05:38:56.796Z,37.66
2019-01-04T05:39:57.035Z,38.05
2019-01-04T05:40:56.768Z,37.85
2019-01-04T05:41:56.759Z,37.66
2019-01-04T05:42:57.038Z,37.66
2019-01-04T05:43:56.754Z,37.65
2019-01-04T05:44:56.724Z,37.96
2019-01-04T05:45:56.975Z,37.65
2019-01-04T05:46:56.702Z,37.45
2019-01-04T05:47:56.701Z,38.17
2019-01-04T05:48:56.679Z,38.05
2019-01-04T05:49:56.694Z,37.95
2019-01-04T05:50:56.664Z,37.65
2019-01-04T05:51:56.655Z,37.95
2019-01-04T05:52:56.659Z,37.65
2019-01-04T05:53:56.632Z,37.95
2019-01-04T05:54:56.611Z,37.65
2019-01-04T05:55:56.622Z,37.65
2019-01-04T05:56:56.603Z,37.95
2019-01-04T05:57:56.868Z,37.95
2019-01-04T05:58:56.813Z,37.95
2019-01-04T05:59:56.595Z,37.96
2019-01-04T06:00:56.548Z,37.65
2019-01-04T06:01:56.545Z,37.65
2019-01-04T06:02:56.536Z,37.95
2019-01-04T06:03:56.528Z,37.65
2019-01-04T06:04:56.542Z,37.54
2019-01-04T06:05:56.492Z,37.87
2019-01-04T06:06:56.485Z,38.05
2019-01-04T06:07:56.477Z,37.65
2019-01-04T06:08:56.714Z,37.76
2019-01-04T06:09:56.710Z,38.15
2019-01-04T06:10:56.437Z,37.65
2019-01-04T06:11:56.430Z,37.66
2019-01-04T06:12:56.433Z,37.95
2019-01-04T06:13:56.456Z,37.85
2019-01-04T06:14:56.644Z,38.07
2019-01-04T06:15:56.633Z,38.15
2019-01-04T06:16:56.365Z,37.95
2019-01-04T06:17:56.368Z,37.65
2019-01-04T06:18:56.353Z,38.07
2019-01-04T06:19:56.343Z,38.17
2019-01-04T06:20:56.563Z,38.05
2019-01-04T06:21:56.568Z,38.27
2019-01-04T06:22:56.328Z,38.25
2019-01-04T06:23:56.288Z,38.27
2019-01-04T06:24:56.280Z,38.25
2019-01-04T06:25:56.287Z,38.05
2019-01-04T06:26:56.310Z,38.25
2019-01-04T06:27:57.600Z,38.15
2019-01-04T06:28:56.232Z,38.27
2019-01-04T06:29:56.218Z,37.74
2019-01-04T06:30:56.205Z,37.56
2019-01-04T06:31:56.205Z,38.27
2019-01-04T06:32:56.441Z,37.56
2019-01-04T06:33:56.186Z,38.25
2019-01-04T06:34:56.162Z,38.27
2019-01-04T06:35:56.158Z,37.87
2019-01-04T06:36:56.142Z,38.25
2019-01-04T06:37:56.169Z,37.66
2019-01-04T06:38:56.125Z,37.65
2019-01-04T06:39:56.132Z,38.17
2019-01-04T06:40:56.099Z,38.27
2019-01-04T06:41:56.082Z,38.15
2019-01-04T06:42:56.090Z,38.05
2019-01-04T06:43:56.324Z,38.17
2019-01-04T06:44:56.305Z,37.66
2019-01-04T06:45:56.038Z,37.65
2019-01-04T06:46:56.537Z,38.05
2019-01-04T06:47:56.039Z,37.76
2019-01-04T06:48:56.277Z,37.95
2019-01-04T06:49:56.026Z,37.54
2019-01-04T06:50:56.903Z,37.56
2019-01-04T06:51:56.225Z,37.46
2019-01-04T06:52:55.958Z,37.66
2019-01-04T06:53:55.966Z,37.54
2019-01-04T06:54:56.490Z,37.65
2019-01-04T06:55:55.932Z,37.65
2019-01-04T06:56:55.914Z,37.65
2019-01-04T06:57:55.940Z,37.95
2019-01-04T06:58:56.158Z,37.65
2019-01-04T06:59:55.892Z,37.65
2019-01-04T07:00:56.191Z,37.66
2019-01-04T07:01:55.862Z,37.87
2019-01-04T07:02:55.860Z,37.56
2019-01-04T07:03:55.862Z,38.25
2019-01-04T07:04:55.825Z,37.96
2019-01-04T07:05:56.071Z,38.05
2019-01-04T07:06:55.806Z,38.17
2019-01-04T07:07:56.059Z,38.07
2019-01-04T07:08:55.797Z,38.05
2019-01-04T07:09:55.785Z,38.05
2019-01-04T07:10:55.758Z,37.65
2019-01-04T07:11:55.748Z,37.54
2019-01-04T07:12:55.862Z,37.65
2019-01-04T07:13:56.006Z,37.54
2019-01-04T07:14:55.985Z,37.65
2019-01-04T07:15:55.738Z,37.54
2019-01-04T07:16:55.692Z,37.65
2019-01-04T07:17:55.925Z,37.65
2019-01-04T07:18:55.688Z,37.54
2019-01-04T07:19:55.718Z,37.54
2019-01-04T07:20:55.736Z,37.65
2019-01-04T07:21:55.645Z,37.54
2019-01-04T07:22:55.628Z,37.66
2019-01-04T07:23:55.885Z,38.05
2019-01-04T07:24:55.603Z,37.65
2019-01-04T07:25:55.840Z,37.56
2019-01-04T07:26:55.583Z,37.85
2019-01-04T07:27:55.570Z,38.05
2019-01-04T07:28:55.574Z,38.07
2019-01-04T07:29:55.829Z,37.54
2019-01-04T07:30:55.534Z,37.66
2019-01-04T07:31:55.539Z,37.66
2019-01-04T07:32:55.544Z,37.95
2019-01-04T07:33:55.779Z,37.54
2019-01-04T07:34:55.498Z,37.56
2019-01-04T07:35:55.491Z,37.65
2019-01-04T07:36:55.475Z,37.54
2019-01-04T07:37:55.468Z,37.76
2019-01-04T07:38:55.465Z,37.66
2019-01-04T07:39:55.434Z,37.66
2019-01-04T07:40:55.676Z,37.45
2019-01-04T07:41:55.414Z,37.65
2019-01-04T07:42:55.429Z,37.54
2019-01-04T07:43:55.418Z,37.87
2019-01-04T07:44:55.447Z,37.34
2019-01-04T07:45:55.395Z,37.56
2019-01-04T07:46:55.376Z,37.54
2019-01-04T07:47:55.347Z,37.54
2019-01-04T07:48:55.401Z,37.36
2019-01-04T07:49:55.319Z,37.54
2019-01-04T07:50:55.323Z,37.14
2019-01-04T07:51:55.310Z,37.45
2019-01-04T07:52:55.285Z,37.65
2019-01-04T07:53:55.562Z,37.95
2019-01-04T07:54:55.271Z,37.65
2019-01-04T07:55:55.257Z,37.65
2019-01-04T07:56:55.252Z,37.65
2019-01-04T07:57:55.248Z,37.66
2019-01-04T07:58:55.235Z,37.54
2019-01-04T07:59:55.462Z,37.74
2019-01-04T08:00:55.212Z,37.65
2019-01-04T08:01:55.197Z,37.34
2019-01-04T08:02:55.215Z,37.46
2019-01-04T08:03:55.249Z,37.24
2019-01-04T08:04:55.470Z,37.54
2019-01-04T08:05:55.156Z,37.45
2019-01-04T08:06:55.397Z,37.74
2019-01-04T08:07:55.145Z,37.54
2019-01-04T08:08:55.130Z,37.54
2019-01-04T08:09:55.664Z,37.45
2019-01-04T08:10:55.115Z,37.45
2019-01-04T08:11:55.331Z,37.14
2019-01-04T08:12:55.335Z,37.65
2019-01-04T08:13:55.132Z,37.74
2019-01-04T08:14:55.293Z,37.24
2019-01-04T08:15:55.092Z,37.26
2019-01-04T08:16:55.269Z,37.24
2019-01-04T08:17:55.065Z,37.45
2019-01-04T08:18:55.034Z,37.24
2019-01-04T08:19:55.007Z,37.74
2019-01-04T08:20:55.007Z,37.65
2019-01-04T08:21:55.223Z,37.24
2019-01-04T08:22:54.953Z,37.45
2019-01-04T08:23:54.986Z,37.24
2019-01-04T08:24:54.943Z,37.46
2019-01-04T08:25:56.068Z,37.54
2019-01-04T08:26:55.067Z,37.54
2019-01-04T08:27:54.915Z,37.45
2019-01-04T08:28:54.915Z,37.45
2019-01-04T08:29:54.959Z,37.65
2019-01-04T08:30:55.160Z,37.45
2019-01-04T08:31:54.920Z,37.54
2019-01-04T08:32:54.883Z,37.46
2019-01-04T08:33:54.861Z,37.26
2019-01-04T08:34:54.829Z,37.26
2019-01-04T08:35:55.137Z,37.65
2019-01-04T08:36:54.810Z,37.34
2019-01-04T08:37:54.876Z,37.74
2019-01-04T08:38:54.808Z,37.24
2019-01-04T08:39:54.781Z,37.24
2019-01-04T08:40:54.809Z,37.65
2019-01-04T08:41:54.819Z,37.34
2019-01-04T08:42:54.851Z,37.24
2019-01-04T08:43:55.461Z,37.24
2019-01-04T08:44:54.981Z,37.34
2019-01-04T08:45:54.710Z,37.24
2019-01-04T08:46:54.694Z,37.16
2019-01-04T08:47:54.738Z,37.85
2019-01-04T08:48:54.680Z,37.24
2019-01-04T08:49:54.733Z,37.45
2019-01-04T08:50:54.649Z,37.16
2019-01-04T08:51:54.719Z,37.24
2019-01-04T08:52:54.934Z,37.56
2019-01-04T08:53:54.727Z,37.54
2019-01-04T08:54:54.819Z,37.45
2019-01-04T08:55:54.697Z,37.34
2019-01-04T08:56:54.652Z,37.24
2019-01-04T08:57:54.578Z,37.36
2019-01-04T08:58:54.575Z,37.45
2019-01-04T08:59:54.585Z,37.45
2019-01-04T09:00:54.553Z,37.34
2019-01-04T09:01:54.571Z,37.36
2019-01-04T09:02:54.537Z,37.36
2019-01-04T09:03:54.513Z,37.45
2019-01-04T09:04:54.622Z,37.36
2019-01-04T09:05:54.732Z,37.66
2019-01-04T09:06:54.497Z,37.65
2019-01-04T09:07:54.497Z,37.65
2019-01-04T09:08:54.460Z,37.65
2019-01-04T09:09:54.732Z,37.95
2019-01-04T09:10:54.459Z,37.65
2019-01-04T09:11:54.477Z,37.24
2019-01-04T09:12:54.680Z,37.26
2019-01-04T09:13:54.507Z,37.46
2019-01-04T09:14:54.667Z,37.45
2019-01-04T09:15:54.637Z,37.56
2019-01-04T09:16:54.363Z,37.45
2019-01-04T09:17:54.400Z,37.45
2019-01-04T09:18:54.641Z,37.54
2019-01-04T09:19:54.721Z,37.34
2019-01-04T09:20:54.354Z,37.66
2019-01-04T09:21:54.865Z,37.66
2019-01-04T09:22:54.338Z,37.65
2019-01-04T09:23:54.289Z,37.95
2019-01-04T09:24:54.560Z,37.56
2019-01-04T09:25:56.510Z,37.65
2019-01-04T09:26:55.151Z,37.95
2019-01-04T09:27:54.910Z,37.95
2019-01-04T09:28:54.266Z,38.05
2019-01-04T09:29:54.293Z,37.85
2019-01-04T09:30:54.490Z,37.54
2019-01-04T09:31:54.239Z,37.65
2019-01-04T09:32:54.347Z,38.07
2019-01-04T09:33:54.193Z,37.34
2019-01-04T09:34:54.210Z,37.66
2019-01-04T09:35:54.157Z,37.65
2019-01-04T09:36:54.212Z,37.54
2019-01-04T09:37:54.421Z,37.65
2019-01-04T09:38:54.416Z,37.54
2019-01-04T09:39:54.127Z,37.24
2019-01-04T09:40:54.164Z,37.66
2019-01-04T09:41:54.086Z,37.65
2019-01-04T09:42:54.091Z,37.16
2019-01-04T09:43:54.217Z,37.24
2019-01-04T09:44:54.322Z,37.46
2019-01-04T09:45:54.335Z,37.54
2019-01-04T09:46:54.036Z,37.04
2019-01-04T09:47:54.030Z,37.34
2019-01-04T09:48:54.127Z,37.46
2019-01-04T09:49:54.266Z,37.65
2019-01-04T09:50:57.525Z,37.65
2019-01-04T09:51:54.328Z,37.45
2019-01-04T09:52:54.189Z,37.65
2019-01-04T09:53:53.959Z,37.65
2019-01-04T09:54:54.238Z,37.66
2019-01-04T09:55:54.362Z,37.45
2019-01-04T09:56:53.994Z,37.65
2019-01-04T09:57:54.040Z,37.65
2019-01-04T09:58:54.033Z,37.54
2019-01-04T09:59:53.905Z,37.65
2019-01-04T10:00:53.898Z,37.65
2019-01-04T10:01:53.883Z,37.65
2019-01-04T10:02:53.866Z,37.65
2019-01-04T10:03:54.101Z,37.34
2019-01-04T10:04:54.112Z,37.46
2019-01-04T10:05:54.088Z,37.65
2019-01-04T10:06:53.999Z,37.34
2019-01-04T10:07:53.798Z,37.24
2019-01-04T10:08:54.085Z,37.45
2019-01-04T10:09:53.844Z,37.14
2019-01-04T10:10:53.948Z,37.34
2019-01-04T10:11:54.016Z,37.24
2019-01-04T10:12:53.762Z,37.24
2019-01-04T10:13:53.865Z,37.45
2019-01-04T10:14:53.813Z,37.14
2019-01-04T10:15:53.774Z,37.14
2019-01-04T10:16:53.709Z,37.46
2019-01-04T10:17:53.939Z,37.46
2019-01-04T10:18:53.743Z,37.24
2019-01-04T10:19:53.695Z,37.65
2019-01-04T10:20:53.984Z,37.45
2019-01-04T10:21:53.955Z,37.45
2019-01-04T10:22:53.704Z,37.14
2019-01-04T10:23:53.953Z,37.34
2019-01-04T10:24:53.656Z,37.45
2019-01-04T10:25:53.877Z,37.34
2019-01-04T10:26:53.596Z,37.45
2019-01-04T10:27:53.585Z,37.34
2019-01-04T10:28:53.580Z,37.65
2019-01-04T10:29:53.608Z,37.34
2019-01-04T10:30:53.830Z,37.45
2019-01-04T10:31:53.794Z,37.65
2019-01-04T10:32:54.028Z,37.54
2019-01-04T10:33:53.510Z,37.45
2019-01-04T10:34:53.520Z,37.66
2019-01-04T10:35:53.503Z,37.45
2019-01-04T10:36:53.508Z,37.45
2019-01-04T10:37:53.469Z,37.45
2019-01-04T10:38:53.765Z,37.24
2019-01-04T10:39:53.909Z,37.66
2019-01-04T10:40:53.500Z,37.46
2019-01-04T10:41:53.469Z,37.54
2019-01-04T10:42:53.434Z,37.34
2019-01-04T10:43:53.402Z,37.34
2019-01-04T10:44:53.415Z,37.65
2019-01-04T10:45:53.464Z,37.34
2019-01-04T10:46:53.368Z,37.74
2019-01-04T10:47:53.418Z,37.46
2019-01-04T10:48:53.822Z,37.45
2019-01-04T10:49:53.418Z,37.45
2019-01-04T10:50:53.639Z,37.34
2019-01-04T10:51:53.570Z,37.74
2019-01-04T10:52:53.820Z,37.45
2019-01-04T10:53:53.367Z,37.65
2019-01-04T10:54:53.288Z,37.46
2019-01-04T10:55:53.540Z,37.65
2019-01-04T10:56:53.324Z,37.65
2019-01-04T10:57:53.298Z,37.65
2019-01-04T10:58:53.234Z,37.65
2019-01-04T10:59:53.912Z,37.66
2019-01-04T11:00:53.222Z,37.45
2019-01-04T11:01:53.841Z,37.45
2019-01-04T11:02:53.439Z,37.24
2019-01-04T11:03:53.209Z,37.45
2019-01-04T11:04:53.218Z,37.54
2019-01-04T11:05:53.209Z,37.45
2019-01-04T11:06:53.193Z,37.65
2019-01-04T11:07:53.450Z,37.45
2019-01-04T11:08:53.476Z,37.45
2019-01-04T11:09:53.151Z,37.45
2019-01-04T11:10:53.241Z,37.54
2019-01-04T11:11:53.128Z,37.34
2019-01-04T11:12:53.525Z,37.45
2019-01-04T11:13:53.139Z,37.34
2019-01-04T11:14:53.087Z,37.45
2019-01-04T11:15:53.226Z,37.65
2019-01-04T11:16:53.040Z,37.45
2019-01-04T11:17:53.064Z,37.45
2019-01-04T11:18:53.061Z,37.65
2019-01-04T11:19:53.052Z,37.65
2019-01-04T11:20:53.014Z,37.65
2019-01-04T11:21:53.446Z,37.65
2019-01-04T11:22:53.000Z,37.65
2019-01-04T11:23:53.007Z,37.65
2019-01-04T11:24:52.981Z,37.45
2019-01-04T11:25:53.273Z,37.66
2019-01-04T11:26:52.980Z,37.65
2019-01-04T11:27:52.952Z,37.65
2019-01-04T11:28:52.910Z,37.65
2019-01-04T11:29:52.897Z,37.45
2019-01-04T11:30:52.895Z,37.34
2019-01-04T11:31:53.176Z,37.34
2019-01-04T11:32:52.913Z,37.45
2019-01-04T11:33:52.907Z,37.45
2019-01-04T11:34:52.888Z,37.45
2019-01-04T11:35:52.859Z,37.24
2019-01-04T11:36:52.823Z,37.24
2019-01-04T11:37:52.821Z,37.34
2019-01-04T11:38:52.861Z,37.24
2019-01-04T11:39:52.811Z,37.34
2019-01-04T11:40:52.816Z,37.45
2019-01-04T11:41:53.071Z,37.24
2019-01-04T11:42:53.930Z,37.65
2019-01-04T11:43:52.779Z,37.14
2019-01-04T11:44:52.732Z,37.14
2019-01-04T11:45:52.759Z,37.14
2019-01-04T11:46:53.035Z,37.14
2019-01-04T11:47:52.739Z,37.74
2019-01-04T11:48:52.812Z,37.14
2019-01-04T11:49:52.743Z,37.34
2019-01-04T11:50:53.042Z,37.14
2019-01-04T11:51:53.078Z,37.14
2019-01-04T11:52:52.668Z,37.34
2019-01-04T11:53:52.661Z,37.65
2019-01-04T11:54:52.642Z,37.24
2019-01-04T11:55:52.923Z,37.14
2019-01-04T11:56:52.636Z,37.34
2019-01-04T11:57:52.594Z,37.14
2019-01-04T11:58:52.577Z,37.74
2019-01-04T11:59:52.738Z,37.24
2019-01-04T12:00:52.808Z,37.04
2019-01-04T12:01:52.823Z,37.34
2019-01-04T12:02:52.545Z,37.14
2019-01-04T12:03:52.572Z,37.14
2019-01-04T12:04:52.677Z,37.14
2019-01-04T12:05:53.071Z,37.04
2019-01-04T12:06:52.517Z,37.16
2019-01-04T12:07:52.494Z,37.24
2019-01-04T12:08:52.465Z,37.65
2019-01-04T12:09:52.497Z,37.24
2019-01-04T12:10:52.448Z,37.24
2019-01-04T12:11:52.474Z,37.16
2019-01-04T12:12:52.992Z,37.24
2019-01-04T12:13:52.581Z,37.54
2019-01-04T12:14:52.444Z,37.24
2019-01-04T12:15:52.446Z,37.45
2019-01-04T12:16:52.460Z,37.16
2019-01-04T12:17:52.363Z,37.66
2019-01-04T12:18:52.428Z,37.54
2019-01-04T12:19:52.362Z,37.45
2019-01-04T12:20:52.372Z,37.45
2019-01-04T12:21:52.421Z,37.65
2019-01-04T12:22:52.628Z,37.34
2019-01-04T12:23:52.460Z,37.36
2019-01-04T12:24:52.287Z,37.34
2019-01-04T12:25:52.555Z,37.65
2019-01-04T12:26:52.549Z,37.85
2019-01-04T12:27:52.275Z,38.05
2019-01-04T12:28:52.277Z,38.15
2019-01-04T12:29:52.494Z,37.74
2019-01-04T12:30:52.507Z,37.45
2019-01-04T12:31:52.266Z,37.45
2019-01-04T12:32:52.208Z,37.45
2019-01-04T12:33:52.245Z,37.45
2019-01-04T12:34:52.175Z,37.54
2019-01-04T12:35:52.171Z,37.54
2019-01-04T12:36:52.211Z,37.54
2019-01-04T12:37:52.412Z,37.54
2019-01-04T12:38:52.198Z,37.85
2019-01-04T12:39:52.133Z,37.85
2019-01-04T12:40:52.177Z,37.45
2019-01-04T12:41:52.378Z,37.54
2019-01-04T12:42:52.094Z,37.54
2019-01-04T12:43:52.085Z,37.85
2019-01-04T12:44:52.075Z,37.85
2019-01-04T12:45:53.233Z,37.54
2019-01-04T12:46:52.070Z,37.54
2019-01-04T12:47:52.043Z,37.45
2019-01-04T12:48:52.036Z,37.45
2019-01-04T12:49:52.280Z,37.45
2019-01-04T12:50:52.004Z,37.85
2019-01-04T12:51:52.013Z,37.45
2019-01-04T12:52:52.273Z,37.54